sensor_id;sensor_type;location;lat;lon;timestamp;pressure;altitude;pressure_sealevel;temperature;humidity
20015;BME280;61787;42.022;23.078;2023-05-17T00:00:40;96054.50;;;16.85;89.33
20015;BME280;61787;42.022;23.078;2023-05-17T00:01:41;96051.38;;;16.93;89.33
20015;BME280;61787;42.022;23.078;2023-05-17T00:02:43;96058.72;;;17.00;89.14
20015;BME280;61787;42.022;23.078;2023-05-17T00:03:45;96062.94;;;17.08;88.51
20015;BME280;61787;42.022;23.078;2023-05-17T00:04:46;96061.75;;;17.16;87.92
20015;BME280;61787;42.022;23.078;2023-05-17T00:05:48;96062.13;;;17.18;87.62
20015;BME280;61787;42.022;23.078;2023-05-17T00:06:50;96062.50;;;17.20;87.46
20015;BME280;61787;42.022;23.078;2023-05-17T00:07:52;96067.56;;;17.18;86.72
20015;BME280;61787;42.022;23.078;2023-05-17T00:08:53;96058.66;;;17.14;86.60
20015;BME280;61787;42.022;23.078;2023-05-17T00:09:55;96059.00;;;17.20;86.37
20015;BME280;61787;42.022;23.078;2023-05-17T00:10:56;96062.09;;;17.25;86.51
20015;BME280;61787;42.022;23.078;2023-05-17T00:11:58;96060.50;;;17.31;85.87
20015;BME280;61787;42.022;23.078;2023-05-17T00:13:00;96055.91;;;17.28;85.47
20015;BME280;61787;42.022;23.078;2023-05-17T00:14:01;96058.97;;;17.30;85.39
20015;BME280;61787;42.022;23.078;2023-05-17T00:15:03;96059.72;;;17.38;85.32
20015;BME280;61787;42.022;23.078;2023-05-17T00:16:06;96059.69;;;17.41;84.57
20015;BME280;61787;42.022;23.078;2023-05-17T00:17:07;96058.88;;;17.44;84.72
20015;BME280;61787;42.022;23.078;2023-05-17T00:18:09;96058.13;;;17.47;84.06
20015;BME280;61787;42.022;23.078;2023-05-17T00:19:11;96060.81;;;17.47;84.06
20015;BME280;61787;42.022;23.078;2023-05-17T00:20:13;96059.72;;;17.38;84.58
20015;BME280;61787;42.022;23.078;2023-05-17T00:21:15;96064.38;;;17.30;85.26
20015;BME280;61787;42.022;23.078;2023-05-17T00:22:16;96053.59;;;17.23;85.22
20015;BME280;61787;42.022;23.078;2023-05-17T00:23:18;96054.41;;;17.10;85.73
20015;BME280;61787;42.022;23.078;2023-05-17T00:24:19;96056.81;;;16.90;86.30
20015;BME280;61787;42.022;23.078;2023-05-17T00:25:21;96054.50;;;16.78;87.49
20015;BME280;61787;42.022;23.078;2023-05-17T00:26:23;96054.91;;;16.76;87.49
20015;BME280;61787;42.022;23.078;2023-05-17T00:27:24;96062.28;;;16.76;87.87
20015;BME280;61787;42.022;23.078;2023-05-17T00:28:26;96065.75;;;16.73;87.93
20015;BME280;61787;42.022;23.078;2023-05-17T00:29:27;96069.22;;;16.73;87.86
20015;BME280;61787;42.022;23.078;2023-05-17T00:30:29;96070.00;;;16.70;87.54
20015;BME280;61787;42.022;23.078;2023-05-17T00:31:31;96062.28;;;16.72;87.66
20015;BME280;61787;42.022;23.078;2023-05-17T00:32:32;96066.13;;;16.78;88.08
20015;BME280;61787;42.022;23.078;2023-05-17T00:33:34;96066.91;;;16.75;87.73
20015;BME280;61787;42.022;23.078;2023-05-17T00:34:36;96066.91;;;16.68;87.78
20015;BME280;61787;42.022;23.078;2023-05-17T00:35:37;96063.03;;;16.69;87.67
20015;BME280;61787;42.022;23.078;2023-05-17T00:36:39;96061.50;;;16.57;87.71
20015;BME280;61787;42.022;23.078;2023-05-17T00:37:41;96068.47;;;16.44;88.74
20015;BME280;61787;42.022;23.078;2023-05-17T00:38:48;96072.72;;;16.49;88.91
20015;BME280;61787;42.022;23.078;2023-05-17T00:39:49;96069.25;;;16.55;88.11
20015;BME280;61787;42.022;23.078;2023-05-17T00:40:51;96064.63;;;16.59;88.71
20015;BME280;61787;42.022;23.078;2023-05-17T00:41:54;96062.28;;;16.54;88.73
20015;BME280;61787;42.022;23.078;2023-05-17T00:42:56;96057.25;;;16.49;89.04
20015;BME280;61787;42.022;23.078;2023-05-17T00:43:57;96054.56;;;16.46;89.43
20015;BME280;61787;42.022;23.078;2023-05-17T00:44:59;96046.44;;;16.49;89.93
20015;BME280;61787;42.022;23.078;2023-05-17T00:46:01;96053.38;;;16.47;89.32
20015;BME280;61787;42.022;23.078;2023-05-17T00:47:02;96048.78;;;16.40;90.19
20015;BME280;61787;42.022;23.078;2023-05-17T00:48:04;96048.41;;;16.31;90.52
20015;BME280;61787;42.022;23.078;2023-05-17T00:49:06;96049.94;;;16.29;91.01
20015;BME280;61787;42.022;23.078;2023-05-17T00:50:08;96046.06;;;16.26;91.15
20015;BME280;61787;42.022;23.078;2023-05-17T00:51:10;96042.22;;;16.31;90.85
20015;BME280;61787;42.022;23.078;2023-05-17T00:52:12;96042.22;;;16.34;90.52
20015;BME280;61787;42.022;23.078;2023-05-17T00:53:14;96053.03;;;16.41;90.31
20015;BME280;61787;42.022;23.078;2023-05-17T00:54:17;96042.97;;;16.45;90.29
20015;BME280;61787;42.022;23.078;2023-05-17T00:55:19;96051.44;;;16.47;90.04
20015;BME280;61787;42.022;23.078;2023-05-17T00:56:22;96049.53;;;16.48;90.03
20015;BME280;61787;42.022;23.078;2023-05-17T00:57:24;96053.75;;;16.52;90.08
20015;BME280;61787;42.022;23.078;2023-05-17T00:58:26;96049.13;;;16.56;89.70
20015;BME280;61787;42.022;23.078;2023-05-17T00:59:28;96050.69;;;16.54;89.40
20015;BME280;61787;42.022;23.078;2023-05-17T01:00:30;96053.00;;;16.55;89.88
20015;BME280;61787;42.022;23.078;2023-05-17T01:01:32;96050.66;;;16.57;89.91
20015;BME280;61787;42.022;23.078;2023-05-17T01:02:35;96039.84;;;16.65;89.13
20015;BME280;61787;42.022;23.078;2023-05-17T01:03:37;96044.50;;;16.60;89.07
20015;BME280;61787;42.022;23.078;2023-05-17T01:04:40;96046.81;;;16.58;89.36
20015;BME280;61787;42.022;23.078;2023-05-17T01:05:41;96051.06;;;16.63;89.39
20015;BME280;61787;42.022;23.078;2023-05-17T01:06:44;96047.19;;;16.71;89.39
20015;BME280;61787;42.022;23.078;2023-05-17T01:07:46;96046.41;;;16.74;87.95
20015;BME280;61787;42.022;23.078;2023-05-17T01:08:47;96047.59;;;16.70;88.47
20015;BME280;61787;42.022;23.078;2023-05-17T01:09:49;96047.97;;;16.72;88.14
20015;BME280;61787;42.022;23.078;2023-05-17T01:13:39;96046.00;;;16.79;86.88
20015;BME280;61787;42.022;23.078;2023-05-17T01:16:15;96045.28;;;16.72;86.93
20015;BME280;61787;42.022;23.078;2023-05-17T01:17:50;96041.41;;;16.51;87.72
20015;BME280;61787;42.022;23.078;2023-05-17T01:19:01;96039.50;;;16.45;88.26
20015;BME280;61787;42.022;23.078;2023-05-17T01:21:39;96043.75;;;16.28;89.21
20015;BME280;61787;42.022;23.078;2023-05-17T01:24:44;96046.88;;;16.09;90.42
20015;BME280;61787;42.022;23.078;2023-05-17T01:26:07;96041.06;;;16.00;90.83
20015;BME280;61787;42.022;23.078;2023-05-17T01:27:12;96046.84;;;15.98;91.37
20015;BME280;61787;42.022;23.078;2023-05-17T01:28:16;96048.41;;;15.99;91.01
20015;BME280;61787;42.022;23.078;2023-05-17T01:29:22;96046.09;;;16.05;91.30
20015;BME280;61787;42.022;23.078;2023-05-17T01:30:27;96052.28;;;16.05;91.38
20015;BME280;61787;42.022;23.078;2023-05-17T01:31:29;96050.72;;;16.08;91.17
20015;BME280;61787;42.022;23.078;2023-05-17T01:32:32;96042.22;;;16.09;91.37
20015;BME280;61787;42.022;23.078;2023-05-17T01:33:34;96054.59;;;16.17;91.39
20015;BME280;61787;42.022;23.078;2023-05-17T01:34:37;96039.13;;;16.14;90.97
20015;BME280;61787;42.022;23.078;2023-05-17T01:35:38;96033.72;;;16.11;91.25
20015;BME280;61787;42.022;23.078;2023-05-17T01:36:40;96032.56;;;16.05;91.50
20015;BME280;61787;42.022;23.078;2023-05-17T01:37:43;96036.06;;;15.95;93.04
20015;BME280;61787;42.022;23.078;2023-05-17T01:38:45;96036.81;;;15.92;92.42
20015;BME280;61787;42.022;23.078;2023-05-17T01:39:46;96040.66;;;15.87;92.71
20015;BME280;61787;42.022;23.078;2023-05-17T01:42:19;96040.66;;;15.73;93.82
20015;BME280;61787;42.022;23.078;2023-05-17T01:43:25;96046.06;;;15.76;93.95
20015;BME280;61787;42.022;23.078;2023-05-17T01:44:38;96047.22;;;15.86;93.83
20015;BME280;61787;42.022;23.078;2023-05-17T01:45:46;96046.06;;;15.91;93.52
20015;BME280;61787;42.022;23.078;2023-05-17T01:47:05;96050.31;;;15.92;93.44
20015;BME280;61787;42.022;23.078;2023-05-17T01:48:30;96047.63;;;15.92;94.23
20015;BME280;61787;42.022;23.078;2023-05-17T01:49:36;96049.97;;;15.90;94.20
20015;BME280;61787;42.022;23.078;2023-05-17T01:50:39;96055.72;;;15.92;94.22
20015;BME280;61787;42.022;23.078;2023-05-17T01:52:02;96048.03;;;15.94;94.52
20015;BME280;61787;42.022;23.078;2023-05-17T01:53:09;96055.38;;;15.90;94.45
20015;BME280;61787;42.022;23.078;2023-05-17T01:54:11;96054.56;;;15.82;94.65
20015;BME280;61787;42.022;23.078;2023-05-17T01:56:26;96049.94;;;15.83;94.49
20015;BME280;61787;42.022;23.078;2023-05-17T01:57:32;96044.56;;;15.90;94.88
20015;BME280;61787;42.022;23.078;2023-05-17T01:58:44;96045.69;;;15.92;94.47
20015;BME280;61787;42.022;23.078;2023-05-17T01:59:47;96046.47;;;16.07;94.50
20015;BME280;61787;42.022;23.078;2023-05-17T02:00:53;96046.47;;;16.14;94.02
20015;BME280;61787;42.022;23.078;2023-05-17T02:01:59;96050.72;;;16.11;94.40
20015;BME280;61787;42.022;23.078;2023-05-17T02:03:06;96046.84;;;15.98;95.44
20015;BME280;61787;42.022;23.078;2023-05-17T02:04:08;96053.81;;;15.92;95.75
20015;BME280;61787;42.022;23.078;2023-05-17T02:05:11;96053.78;;;15.82;97.29
20015;BME280;61787;42.022;23.078;2023-05-17T02:06:12;96046.81;;;15.70;97.95
20015;BME280;61787;42.022;23.078;2023-05-17T02:07:14;96048.38;;;15.64;97.88
20015;BME280;61787;42.022;23.078;2023-05-17T02:08:16;96054.56;;;15.68;97.61
20015;BME280;61787;42.022;23.078;2023-05-17T02:09:18;96049.16;;;15.68;97.79
20015;BME280;61787;42.022;23.078;2023-05-17T02:10:20;96049.91;;;15.75;97.13
20015;BME280;61787;42.022;23.078;2023-05-17T02:11:21;96056.13;;;15.80;96.69
20015;BME280;61787;42.022;23.078;2023-05-17T02:12:23;96055.72;;;15.77;96.80
20015;BME280;61787;42.022;23.078;2023-05-17T02:13:25;96053.81;;;15.78;96.20
20015;BME280;61787;42.022;23.078;2023-05-17T02:14:27;96053.03;;;15.77;96.68
20015;BME280;61787;42.022;23.078;2023-05-17T02:15:29;96054.56;;;15.75;97.15
20015;BME280;61787;42.022;23.078;2023-05-17T02:16:31;96051.47;;;15.76;97.64
20015;BME280;61787;42.022;23.078;2023-05-17T02:17:32;96048.41;;;15.78;97.18
20015;BME280;61787;42.022;23.078;2023-05-17T02:18:34;96043.75;;;15.82;97.50
20015;BME280;61787;42.022;23.078;2023-05-17T02:19:38;96051.84;;;15.75;97.97
20015;BME280;61787;42.022;23.078;2023-05-17T02:20:39;96049.13;;;15.57;98.81
20015;BME280;61787;42.022;23.078;2023-05-17T02:21:41;96051.06;;;15.53;99.36
20015;BME280;61787;42.022;23.078;2023-05-17T02:22:43;96054.47;;;15.50;100.00
20015;BME280;61787;42.022;23.078;2023-05-17T02:23:44;96055.31;;;15.54;99.19
20015;BME280;61787;42.022;23.078;2023-05-17T02:24:46;96055.25;;;15.47;99.46
20015;BME280;61787;42.022;23.078;2023-05-17T02:25:49;96058.75;;;15.48;100.00
20015;BME280;61787;42.022;23.078;2023-05-17T02:26:51;96052.16;;;15.45;100.00
20015;BME280;61787;42.022;23.078;2023-05-17T02:27:52;96063.78;;;15.56;100.00
20015;BME280;61787;42.022;23.078;2023-05-17T02:28:54;96059.19;;;15.64;100.00
20015;BME280;61787;42.022;23.078;2023-05-17T02:29:56;96058.41;;;15.67;100.00
20015;BME280;61787;42.022;23.078;2023-05-17T02:30:57;96059.88;;;15.50;99.98
20015;BME280;61787;42.022;23.078;2023-05-17T02:31:59;96056.78;;;15.41;100.00
20015;BME280;61787;42.022;23.078;2023-05-17T02:33:01;96065.22;;;15.29;100.00
20015;BME280;61787;42.022;23.078;2023-05-17T02:34:02;96065.53;;;15.10;100.00
20015;BME280;61787;42.022;23.078;2023-05-17T02:35:04;96064.41;;;15.07;100.00
20015;BME280;61787;42.022;23.078;2023-05-17T02:36:06;96065.19;;;15.15;100.00
20015;BME280;61787;42.022;23.078;2023-05-17T02:37:08;96067.50;;;15.16;100.00
20015;BME280;61787;42.022;23.078;2023-05-17T02:38:09;96062.53;;;15.22;100.00
20015;BME280;61787;42.022;23.078;2023-05-17T02:39:11;96063.69;;;15.31;100.00
20015;BME280;61787;42.022;23.078;2023-05-17T02:40:13;96060.25;;;15.42;100.00
20015;BME280;61787;42.022;23.078;2023-05-17T02:41:14;96054.47;;;15.47;100.00
20015;BME280;61787;42.022;23.078;2023-05-17T02:42:16;96059.16;;;15.53;100.00
20015;BME280;61787;42.022;23.078;2023-05-17T02:43:18;96066.13;;;15.61;100.00
20015;BME280;61787;42.022;23.078;2023-05-17T02:44:19;96072.31;;;15.65;100.00
20015;BME280;61787;42.022;23.078;2023-05-17T02:45:21;96070.38;;;15.62;100.00
20015;BME280;61787;42.022;23.078;2023-05-17T02:46:23;96076.09;;;15.50;100.00
20015;BME280;61787;42.022;23.078;2023-05-17T02:47:24;96076.09;;;15.47;100.00
20015;BME280;61787;42.022;23.078;2023-05-17T02:48:26;96076.84;;;15.40;100.00
20015;BME280;61787;42.022;23.078;2023-05-17T02:49:28;96069.09;;;15.35;100.00
20015;BME280;61787;42.022;23.078;2023-05-17T02:50:29;96073.72;;;15.27;100.00
20015;BME280;61787;42.022;23.078;2023-05-17T02:51:31;96077.56;;;15.26;100.00
20015;BME280;61787;42.022;23.078;2023-05-17T02:52:32;96076.03;;;15.29;100.00
20015;BME280;61787;42.022;23.078;2023-05-17T02:53:34;96086.09;;;15.32;100.00
20015;BME280;61787;42.022;23.078;2023-05-17T02:54:36;96082.25;;;15.36;100.00
20015;BME280;61787;42.022;23.078;2023-05-17T02:55:37;96081.88;;;15.38;100.00
20015;BME280;61787;42.022;23.078;2023-05-17T02:56:39;96081.47;;;15.36;100.00
20015;BME280;61787;42.022;23.078;2023-05-17T02:57:41;96081.78;;;15.24;100.00
20015;BME280;61787;42.022;23.078;2023-05-17T02:58:43;96084.88;;;15.19;100.00
20015;BME280;61787;42.022;23.078;2023-05-17T02:59:44;96089.13;;;15.20;100.00
20015;BME280;61787;42.022;23.078;2023-05-17T03:00:46;96088.00;;;15.28;100.00
20015;BME280;61787;42.022;23.078;2023-05-17T03:01:48;96095.31;;;15.24;100.00
20015;BME280;61787;42.022;23.078;2023-05-17T03:02:50;96092.59;;;15.20;100.00
20015;BME280;61787;42.022;23.078;2023-05-17T03:03:52;96091.44;;;15.25;100.00
20015;BME280;61787;42.022;23.078;2023-05-17T03:04:55;96080.69;;;15.32;100.00
20015;BME280;61787;42.022;23.078;2023-05-17T03:06:00;96091.53;;;15.43;100.00
20015;BME280;61787;42.022;23.078;2023-05-17T03:07:02;96083.84;;;15.48;100.00
20015;BME280;61787;42.022;23.078;2023-05-17T03:08:07;96078.09;;;15.53;100.00
20015;BME280;61787;42.022;23.078;2023-05-17T03:09:09;96073.06;;;15.55;100.00
20015;BME280;61787;42.022;23.078;2023-05-17T03:10:10;96075.78;;;15.59;100.00
20015;BME280;61787;42.022;23.078;2023-05-17T03:11:12;96079.25;;;15.59;100.00
20015;BME280;61787;42.022;23.078;2023-05-17T03:12:13;96079.16;;;15.45;100.00
20015;BME280;61787;42.022;23.078;2023-05-17T03:13:15;96079.13;;;15.31;100.00
20015;BME280;61787;42.022;23.078;2023-05-17T03:14:17;96076.81;;;15.22;100.00
20015;BME280;61787;42.022;23.078;2023-05-17T03:15:18;96078.31;;;15.13;100.00
20015;BME280;61787;42.022;23.078;2023-05-17T03:16:20;96076.72;;;15.05;100.00
20015;BME280;61787;42.022;23.078;2023-05-17T03:17:22;96079.00;;;14.96;100.00
20015;BME280;61787;42.022;23.078;2023-05-17T03:18:24;96077.06;;;14.96;100.00
20015;BME280;61787;42.022;23.078;2023-05-17T03:19:25;96075.94;;;14.97;100.00
20015;BME280;61787;42.022;23.078;2023-05-17T03:20:27;96083.66;;;15.06;100.00
20015;BME280;61787;42.022;23.078;2023-05-17T03:21:29;96086.00;;;15.07;100.00
20015;BME280;61787;42.022;23.078;2023-05-17T03:22:31;96079.81;;;15.07;100.00
20015;BME280;61787;42.022;23.078;2023-05-17T03:23:33;96076.75;;;15.12;100.00
20015;BME280;61787;42.022;23.078;2023-05-17T03:24:35;96073.69;;;15.20;100.00
20015;BME280;61787;42.022;23.078;2023-05-17T03:25:36;96073.69;;;15.24;100.00
20015;BME280;61787;42.022;23.078;2023-05-17T03:26:38;96080.28;;;15.26;100.00
20015;BME280;61787;42.022;23.078;2023-05-17T03:27:40;96076.84;;;15.33;100.00
20015;BME280;61787;42.022;23.078;2023-05-17T03:28:41;96079.53;;;15.40;100.00
20015;BME280;61787;42.022;23.078;2023-05-17T03:29:43;96079.16;;;15.45;100.00
20015;BME280;61787;42.022;23.078;2023-05-17T03:30:44;96080.69;;;15.39;100.00
20015;BME280;61787;42.022;23.078;2023-05-17T03:31:46;96082.59;;;15.28;100.00
20015;BME280;61787;42.022;23.078;2023-05-17T03:32:48;96083.31;;;15.14;100.00
20015;BME280;61787;42.022;23.078;2023-05-17T03:33:51;96086.78;;;15.11;100.00
20015;BME280;61787;42.022;23.078;2023-05-17T03:34:53;96082.16;;;15.12;100.00
20015;BME280;61787;42.022;23.078;2023-05-17T03:35:55;96076.75;;;15.19;100.00
20015;BME280;61787;42.022;23.078;2023-05-17T03:36:56;96077.97;;;15.28;100.00
20015;BME280;61787;42.022;23.078;2023-05-17T03:37:58;96074.91;;;15.37;100.00
20015;BME280;61787;42.022;23.078;2023-05-17T03:38:59;96079.19;;;15.49;100.00
20015;BME280;61787;42.022;23.078;2023-05-17T03:40:01;96073.44;;;15.57;100.00
20015;BME280;61787;42.022;23.078;2023-05-17T03:41:03;96078.88;;;15.64;100.00
20015;BME280;61787;42.022;23.078;2023-05-17T03:42:08;96080.06;;;15.74;100.00
20015;BME280;61787;42.022;23.078;2023-05-17T03:43:09;96085.09;;;15.83;99.99
20015;BME280;61787;42.022;23.078;2023-05-17T03:44:11;96079.28;;;15.88;99.47
20015;BME280;61787;42.022;23.078;2023-05-17T03:45:14;96082.41;;;15.90;99.60
20015;BME280;61787;42.022;23.078;2023-05-17T03:46:15;96082.41;;;15.93;100.00
20015;BME280;61787;42.022;23.078;2023-05-17T03:47:17;96090.91;;;15.99;99.79
20015;BME280;61787;42.022;23.078;2023-05-17T03:48:19;96090.13;;;15.98;99.84
20015;BME280;61787;42.022;23.078;2023-05-17T03:49:20;96094.75;;;15.98;100.00
20015;BME280;61787;42.022;23.078;2023-05-17T03:50:22;96093.59;;;15.92;100.00
20015;BME280;61787;42.022;23.078;2023-05-17T03:51:24;96097.06;;;15.96;100.00
20015;BME280;61787;42.022;23.078;2023-05-17T03:52:25;96090.91;;;16.02;100.00
20015;BME280;61787;42.022;23.078;2023-05-17T03:53:27;96093.97;;;16.11;100.00
20015;BME280;61787;42.022;23.078;2023-05-17T03:54:29;96090.13;;;16.16;100.00
20015;BME280;61787;42.022;23.078;2023-05-17T03:55:30;96090.91;;;16.20;99.80
20015;BME280;61787;42.022;23.078;2023-05-17T03:56:32;96090.13;;;16.27;99.18
20015;BME280;61787;42.022;23.078;2023-05-17T03:57:34;96088.59;;;16.29;98.51
20015;BME280;61787;42.022;23.078;2023-05-17T03:58:35;96086.28;;;16.31;98.66
20015;BME280;61787;42.022;23.078;2023-05-17T03:59:37;96089.34;;;16.33;98.29
20015;BME280;61787;42.022;23.078;2023-05-17T04:00:38;96086.25;;;16.38;97.64
20015;BME280;61787;42.022;23.078;2023-05-17T04:01:41;96093.22;;;16.46;97.94
20015;BME280;61787;42.022;23.078;2023-05-17T04:02:43;96094.34;;;16.52;97.47
20015;BME280;61787;42.022;23.078;2023-05-17T04:03:45;96099.38;;;16.57;97.79
20015;BME280;61787;42.022;23.078;2023-05-17T04:04:48;96096.31;;;16.62;97.08
20015;BME280;61787;42.022;23.078;2023-05-17T04:05:50;96091.69;;;16.67;97.47
20015;BME280;61787;42.022;23.078;2023-05-17T04:06:52;96095.53;;;16.69;96.79
20015;BME280;61787;42.022;23.078;2023-05-17T04:07:53;96088.59;;;16.65;96.92
20015;BME280;61787;42.022;23.078;2023-05-17T04:08:55;96087.81;;;16.60;97.56
20015;BME280;61787;42.022;23.078;2023-05-17T04:09:57;96091.28;;;16.65;97.08
20015;BME280;61787;42.022;23.078;2023-05-17T04:11:03;96086.25;;;16.74;96.67
20015;BME280;61787;42.022;23.078;2023-05-17T04:12:11;96095.50;;;16.83;96.44
20015;BME280;61787;42.022;23.078;2023-05-17T04:13:13;96082.31;;;16.96;94.98
20015;BME280;61787;42.022;23.078;2023-05-17T04:14:19;96086.16;;;16.98;94.06
20015;BME280;61787;42.022;23.078;2023-05-17T04:15:21;96095.06;;;17.06;94.32
20015;BME280;61787;42.022;23.078;2023-05-17T04:16:23;96091.56;;;17.09;93.75
20015;BME280;61787;42.022;23.078;2023-05-17T04:17:24;96093.09;;;17.10;93.83
20015;BME280;61787;42.022;23.078;2023-05-17T04:18:26;96094.66;;;17.18;94.21
20015;BME280;61787;42.022;23.078;2023-05-17T04:19:28;96088.03;;;17.23;93.43
20015;BME280;61787;42.022;23.078;2023-05-17T04:20:30;96096.91;;;17.30;93.16
20015;BME280;61787;42.022;23.078;2023-05-17T04:21:31;96097.66;;;17.38;93.01
20015;BME280;61787;42.022;23.078;2023-05-17T04:22:33;96099.22;;;17.35;91.74
20015;BME280;61787;42.022;23.078;2023-05-17T04:23:34;96095.34;;;17.29;92.28
20015;BME280;61787;42.022;23.078;2023-05-17T04:24:36;96099.59;;;17.34;92.83
20015;BME280;61787;42.022;23.078;2023-05-17T04:25:38;96093.00;;;17.35;91.65
20015;BME280;61787;42.022;23.078;2023-05-17T04:26:39;96091.47;;;17.37;91.62
20015;BME280;61787;42.022;23.078;2023-05-17T04:27:41;96099.94;;;17.46;91.88
20015;BME280;61787;42.022;23.078;2023-05-17T04:28:43;96103.78;;;17.53;91.21
20015;BME280;61787;42.022;23.078;2023-05-17T04:29:44;96100.66;;;17.61;91.10
20015;BME280;61787;42.022;23.078;2023-05-17T04:30:46;96099.47;;;17.69;91.51
20015;BME280;61787;42.022;23.078;2023-05-17T04:31:48;96100.53;;;17.82;91.25
20015;BME280;61787;42.022;23.078;2023-05-17T04:32:50;96104.41;;;17.85;89.86
20015;BME280;61787;42.022;23.078;2023-05-17T04:33:52;96102.88;;;17.84;90.64
20015;BME280;61787;42.022;23.078;2023-05-17T04:34:53;96099.00;;;17.81;90.36
20015;BME280;61787;42.022;23.078;2023-05-17T04:35:56;96109.00;;;17.95;90.62
20015;BME280;61787;42.022;23.078;2023-05-17T04:36:58;96107.78;;;18.03;89.04
20015;BME280;61787;42.022;23.078;2023-05-17T04:38:00;96108.94;;;18.02;88.46
20015;BME280;61787;42.022;23.078;2023-05-17T04:39:02;96111.22;;;18.07;88.74
20015;BME280;61787;42.022;23.078;2023-05-17T04:40:05;96108.91;;;18.09;88.54
20015;BME280;61787;42.022;23.078;2023-05-17T04:41:07;96114.25;;;18.16;89.09
20015;BME280;61787;42.022;23.078;2023-05-17T04:42:09;96119.66;;;18.23;87.84
20015;BME280;61787;42.022;23.078;2023-05-17T04:43:12;96118.06;;;18.29;87.04
20015;BME280;61787;42.022;23.078;2023-05-17T04:44:13;96123.91;;;18.24;86.64
20015;BME280;61787;42.022;23.078;2023-05-17T04:45:15;96119.56;;;18.34;86.61
20015;BME280;61787;42.022;23.078;2023-05-17T04:46:18;96121.09;;;18.39;86.44
20015;BME280;61787;42.022;23.078;2023-05-17T04:47:19;96117.13;;;18.47;85.65
20015;BME280;61787;42.022;23.078;2023-05-17T04:48:21;96122.25;;;18.41;84.39
20015;BME280;61787;42.022;23.078;2023-05-17T04:49:23;96119.53;;;18.38;84.35
20015;BME280;61787;42.022;23.078;2023-05-17T04:50:25;96129.50;;;18.55;84.38
20015;BME280;61787;42.022;23.078;2023-05-17T04:51:28;96125.56;;;18.63;82.56
20015;BME280;61787;42.022;23.078;2023-05-17T04:52:31;96126.84;;;18.44;82.16
20015;BME280;61787;42.022;23.078;2023-05-17T04:53:33;96124.97;;;18.41;82.79
20015;BME280;61787;42.022;23.078;2023-05-17T04:54:34;96115.66;;;18.39;82.34
20015;BME280;61787;42.022;23.078;2023-05-17T04:55:36;96114.00;;;18.52;82.31
20015;BME280;61787;42.022;23.078;2023-05-17T04:56:38;96117.84;;;18.58;81.59
20015;BME280;61787;42.022;23.078;2023-05-17T04:57:40;96110.81;;;18.64;81.95
20015;BME280;61787;42.022;23.078;2023-05-17T04:58:41;96115.44;;;18.67;81.27
20015;BME280;61787;42.022;23.078;2023-05-17T04:59:43;96121.31;;;18.62;80.60
20015;BME280;61787;42.022;23.078;2023-05-17T05:00:45;96116.19;;;18.67;80.87
20015;BME280;61787;42.022;23.078;2023-05-17T05:01:46;96121.09;;;18.83;80.36
20015;BME280;61787;42.022;23.078;2023-05-17T05:02:48;96121.78;;;18.94;80.06
20015;BME280;61787;42.022;23.078;2023-05-17T05:03:50;96120.44;;;19.09;79.45
20015;BME280;61787;42.022;23.078;2023-05-17T05:04:52;96121.88;;;19.21;78.95
20015;BME280;61787;42.022;23.078;2023-05-17T05:05:53;96125.66;;;19.31;78.74
20015;BME280;61787;42.022;23.078;2023-05-17T05:06:55;96127.19;;;19.32;78.91
20015;BME280;61787;42.022;23.078;2023-05-17T05:07:57;96122.47;;;19.36;79.20
20015;BME280;61787;42.022;23.078;2023-05-17T05:09:00;96127.84;;;19.43;78.58
20015;BME280;61787;42.022;23.078;2023-05-17T05:10:02;96130.91;;;19.48;78.43
20015;BME280;61787;42.022;23.078;2023-05-17T05:11:03;96120.75;;;19.52;78.46
20015;BME280;61787;42.022;23.078;2023-05-17T05:12:05;96119.47;;;19.61;77.75
20015;BME280;61787;42.022;23.078;2023-05-17T05:13:07;96114.75;;;19.68;77.49
20015;BME280;61787;42.022;23.078;2023-05-17T05:14:09;96105.34;;;19.73;76.98
20015;BME280;61787;42.022;23.078;2023-05-17T05:15:11;96112.22;;;19.81;76.67
20015;BME280;61787;42.022;23.078;2023-05-17T05:16:12;96108.63;;;19.87;76.53
20015;BME280;61787;42.022;23.078;2023-05-17T05:17:14;96111.63;;;19.96;76.05
20015;BME280;61787;42.022;23.078;2023-05-17T05:18:16;96116.91;;;20.07;75.45
20015;BME280;61787;42.022;23.078;2023-05-17T05:19:17;96113.00;;;20.08;74.22
20015;BME280;61787;42.022;23.078;2023-05-17T05:20:20;96108.25;;;20.16;74.20
20015;BME280;61787;42.022;23.078;2023-05-17T05:21:21;96115.09;;;20.24;73.45
20015;BME280;61787;42.022;23.078;2023-05-17T05:22:23;96112.75;;;20.26;73.26
20015;BME280;61787;42.022;23.078;2023-05-17T05:23:25;96113.81;;;20.32;73.49
20015;BME280;61787;42.022;23.078;2023-05-17T05:24:27;96114.81;;;20.45;72.44
20015;BME280;61787;42.022;23.078;2023-05-17T05:25:28;96106.56;;;20.49;72.53
20015;BME280;61787;42.022;23.078;2023-05-17T05:26:31;96113.84;;;20.55;72.38
20015;BME280;61787;42.022;23.078;2023-05-17T05:27:33;96108.41;;;20.55;72.51
20015;BME280;61787;42.022;23.078;2023-05-17T05:28:36;96108.41;;;20.55;73.87
20015;BME280;61787;42.022;23.078;2023-05-17T05:29:37;96112.31;;;20.54;74.72
20015;BME280;61787;42.022;23.078;2023-05-17T05:30:39;96116.19;;;20.57;74.81
20015;BME280;61787;42.022;23.078;2023-05-17T05:31:41;96113.78;;;20.59;75.52
20015;BME280;61787;42.022;23.078;2023-05-17T05:32:42;96116.03;;;20.64;75.97
20015;BME280;61787;42.022;23.078;2023-05-17T05:33:44;96116.91;;;20.57;76.69
20015;BME280;61787;42.022;23.078;2023-05-17T05:34:46;96109.13;;;20.59;76.91
20015;BME280;61787;42.022;23.078;2023-05-17T05:35:49;96119.53;;;20.64;76.08
20015;BME280;61787;42.022;23.078;2023-05-17T05:36:51;96116.91;;;20.57;76.77